Time;durP1;ratioP1;P1;durP2;ratioP2;P2;SDS_P1;SDS_P2;PMS_P1;PMS_P2;Temp;Humidity;BMP_temperature;BMP_pressure;BME280_temperature;BME280_humidity;BME280_pressure;Samples;Min_cycle;Max_cycle;Signal;HPM_P1;HPM_P2
2021/07/26 00:02:03;;;;;;;;;;;;;;;22.04;29.75;98215.38;4999727;28;962;-81
2021/07/26 00:04:29;;;;;;;;;;;;;;;22.08;29.80;98214.06;5004461;28;915;-81
2021/07/26 00:06:54;;;;;;;;;;;;;;;22.24;29.38;98220.97;5004860;28;830;-81
2021/07/26 00:09:20;;;;;;;;;;;;;;;22.18;29.60;98220.72;5003915;28;655;-82
2021/07/26 00:11:45;;;;;;;;;;;;;;;22.06;30.02;98215.72;5004947;28;770;-81
2021/07/26 00:14:11;;;;;;;;;;;;;;;21.96;29.98;98222.44;5004631;28;675;-82
2021/07/26 00:16:36;;;;;;;;;;;;;;;22.12;29.65;98221.69;5003413;28;1902;-82
2021/07/26 00:19:02;;;;;;;;;;;;;;;22.13;29.49;98223.28;5003418;28;884;-81
2021/07/26 00:21:27;;;;;;;;;;;;;;;22.18;29.34;98223.56;5003606;28;779;-81
2021/07/26 00:23:53;;;;;;;;;;;;;;;22.20;29.31;98223.91;5004373;28;667;-81
2021/07/26 00:26:19;;;;;;;;;;;;;;;22.16;29.32;98220.34;5003836;28;607;-81
2021/07/26 00:28:44;;;;;;;;;;;;;;;22.11;29.54;98218.06;5004069;28;683;-82
2021/07/26 00:31:10;;;;;;;;;;;;;;;22.04;29.65;98212.53;5003900;28;1062;-81
2021/07/26 00:36:21;;;;;;;;;;;;;;;22.10;29.57;98210.75;5004203;28;1898;-81
2021/07/26 00:38:46;;;;;;;;;;;;;;;22.12;29.40;98207.50;5003965;28;670;-82
2021/07/26 00:41:11;;;;;;;;;;;;;;;22.16;29.44;98211.06;5004210;28;632;-81
2021/07/26 00:43:37;;;;;;;;;;;;;;;22.14;29.69;98211.50;5003619;28;646;-81
2021/07/26 00:46:02;;;;;;;;;;;;;;;22.21;29.41;98208.47;5003848;28;848;-82
2021/07/26 00:48:28;;;;;;;;;;;;;;;22.09;29.49;98198.63;5003408;28;1078;-82
2021/07/26 00:50:53;;;;;;;;;;;;;;;22.18;29.36;98189.56;5004002;28;1105;-82
2021/07/26 00:53:19;;;;;;;;;;;;;;;22.10;29.49;98194.59;5003242;28;708;-82
2021/07/26 00:55:44;;;;;;;;;;;;;;;22.20;29.36;98189.88;4987046;28;1906;-82
2021/07/26 00:58:10;;;;;;;;;;;;;;;22.25;29.22;98195.03;5003947;28;682;-81
2021/07/26 01:00:35;;;;;;;;;;;;;;;22.22;29.43;98201.56;5002764;28;973;-82
2021/07/26 01:03:00;;;;;;;;;;;;;;;22.03;29.76;98188.28;5003234;28;882;-81
2021/07/26 01:05:26;;;;;;;;;;;;;;;22.05;29.77;98191.47;5002941;28;905;-80
2021/07/26 01:08:03;;;;;;;;;;;;;;;22.10;29.36;98188.91;5003483;28;623;-81
2021/07/26 01:10:29;;;;;;;;;;;;;;;22.05;29.70;98185.78;5003686;28;668;-82
2021/07/26 01:12:54;;;;;;;;;;;;;;;22.16;29.57;98180.69;5003364;28;646;-82
2021/07/26 01:15:20;;;;;;;;;;;;;;;22.08;29.44;98191.38;5003109;28;1008;-82
2021/07/26 01:18:10;;;;;;;;;;;;;;;22.10;29.82;98185.25;5003086;28;892;-81
2021/07/26 01:20:36;;;;;;;;;;;;;;;22.23;29.35;98191.84;5003454;28;678;-82
2021/07/26 01:23:01;;;;;;;;;;;;;;;22.26;29.37;98190.94;5003261;28;695;-82
2021/07/26 01:25:26;;;;;;;;;;;;;;;22.05;29.57;98180.94;5003380;28;644;-82
2021/07/26 01:27:52;;;;;;;;;;;;;;;22.12;29.53;98185.63;5003091;28;607;-82
2021/07/26 01:30:20;;;;;;;;;;;;;;;22.07;29.89;98183.31;5002794;28;857;-82
2021/07/26 01:32:46;;;;;;;;;;;;;;;22.14;29.57;98183.16;5002045;28;1132;-82
2021/07/26 01:35:14;;;;;;;;;;;;;;;22.19;29.79;98179.81;5003136;28;842;-81
2021/07/26 01:37:43;;;;;;;;;;;;;;;22.10;29.57;98179.59;5002399;28;1977;-82
2021/07/26 01:40:09;;;;;;;;;;;;;;;22.11;29.55;98184.03;5002762;28;646;-82
2021/07/26 01:42:40;;;;;;;;;;;;;;;22.12;29.48;98179.97;5002505;28;851;-82
2021/07/26 01:45:09;;;;;;;;;;;;;;;22.25;29.11;98178.00;5002561;28;881;-81
2021/07/26 01:47:34;;;;;;;;;;;;;;;22.24;29.41;98179.25;5001927;28;894;-81
2021/07/26 01:50:04;;;;;;;;;;;;;;;22.22;29.41;98173.22;5002155;28;1033;-81
2021/07/26 01:52:29;;;;;;;;;;;;;;;22.16;29.17;98168.53;5002317;28;792;-82
2021/07/26 01:55:13;;;;;;;;;;;;;;;21.98;29.81;98163.31;5002058;28;642;-82
2021/07/26 01:57:39;;;;;;;;;;;;;;;22.05;29.27;98168.78;5002116;28;1902;-82
2021/07/26 02:00:04;;;;;;;;;;;;;;;22.07;29.27;98171.97;5001625;28;1253;-82
2021/07/26 02:02:31;;;;;;;;;;;;;;;22.18;29.22;98166.88;5002612;28;878;-81
2021/07/26 02:04:58;;;;;;;;;;;;;;;22.22;29.17;98173.22;5001995;28;1051;-81
2021/07/26 02:07:24;;;;;;;;;;;;;;;22.22;29.06;98172.44;5002809;28;659;-81
2021/07/26 02:09:51;;;;;;;;;;;;;;;22.20;29.36;98170.03;4985586;28;1499;-82
2021/07/26 02:12:17;;;;;;;;;;;;;;;22.21;29.22;98171.63;5001968;28;901;-81
2021/07/26 02:14:44;;;;;;;;;;;;;;;22.20;29.22;98164.38;5002009;28;902;-82
2021/07/26 02:17:10;;;;;;;;;;;;;;;22.25;29.28;98171.56;5001398;28;1890;-81
2021/07/26 02:19:35;;;;;;;;;;;;;;;22.18;29.26;98161.22;5002034;28;1086;-81
2021/07/26 02:22:01;;;;;;;;;;;;;;;22.08;29.50;98150.91;5001782;28;615;-81
2021/07/26 02:24:26;;;;;;;;;;;;;;;22.14;29.62;98156.88;5001969;28;612;-82
2021/07/26 02:26:51;;;;;;;;;;;;;;;22.07;29.61;98155.78;5001007;28;648;-82
2021/07/26 02:29:17;;;;;;;;;;;;;;;22.05;29.51;98146.13;5001674;28;945;-82
2021/07/26 02:31:42;;;;;;;;;;;;;;;22.07;29.41;98154.97;5001762;28;795;-82
2021/07/26 02:34:08;;;;;;;;;;;;;;;22.02;29.65;98152.66;5001316;28;904;-82
2021/07/26 02:36:33;;;;;;;;;;;;;;;22.04;29.51;98155.88;5017818;28;1975;-82
2021/07/26 02:38:59;;;;;;;;;;;;;;;22.03;29.79;98160.75;5001988;28;682;-82
2021/07/26 02:41:24;;;;;;;;;;;;;;;21.96;29.86;98160.13;5002285;28;655;-81
2021/07/26 02:43:50;;;;;;;;;;;;;;;21.95;29.67;98158.53;5001547;28;931;-82
2021/07/26 02:46:15;;;;;;;;;;;;;;;22.04;29.59;98161.53;5001107;28;893;-82
2021/07/26 02:48:41;;;;;;;;;;;;;;;22.04;29.52;98164.38;5000699;28;991;-81
2021/07/26 02:51:06;;;;;;;;;;;;;;;22.01;29.85;98163.22;5001498;28;622;-81
2021/07/26 02:53:31;;;;;;;;;;;;;;;22.07;29.70;98158.63;5000739;28;710;-81
2021/07/26 02:55:57;;;;;;;;;;;;;;;21.97;29.78;98161.72;5000877;28;1959;-81
2021/07/26 02:58:22;;;;;;;;;;;;;;;22.05;29.39;98168.78;5000186;28;1074;-81
2021/07/26 03:00:48;;;;;;;;;;;;;;;22.13;29.58;98169.47;5000477;28;874;-81
2021/07/26 03:03:13;;;;;;;;;;;;;;;22.04;29.57;98172.88;5000729;28;841;-81
2021/07/26 03:05:39;;;;;;;;;;;;;;;22.11;29.42;98167.03;5000600;28;729;-80
2021/07/26 03:08:04;;;;;;;;;;;;;;;22.09;29.39;98172.34;5001070;28;694;-81
2021/07/26 03:10:30;;;;;;;;;;;;;;;22.09;29.47;98178.00;4983846;28;806;-80
2021/07/26 03:12:55;;;;;;;;;;;;;;;21.98;29.48;98171.81;5000764;28;916;-80
2021/07/26 03:15:21;;;;;;;;;;;;;;;22.16;29.44;98180.69;5000107;28;920;-80
2021/07/26 03:17:47;;;;;;;;;;;;;;;22.06;29.64;98176.06;5000891;28;1976;-81
2021/07/26 03:20:13;;;;;;;;;;;;;;;21.95;29.79;98175.53;5000339;28;643;-80
2021/07/26 03:22:57;;;;;;;;;;;;;;;22.04;29.59;98179.34;5000263;28;655;-81
2021/07/26 03:25:22;;;;;;;;;;;;;;;22.12;29.46;98182.81;5001053;28;635;-80
2021/07/26 03:27:48;;;;;;;;;;;;;;;22.07;29.48;98184.13;5000586;28;939;-81
2021/07/26 03:30:14;;;;;;;;;;;;;;;22.20;29.66;98181.38;4999953;28;858;-81
2021/07/26 03:32:40;;;;;;;;;;;;;;;22.11;29.72;98181.22;5000016;28;1140;-81
2021/07/26 03:35:05;;;;;;;;;;;;;;;22.20;29.40;98175.72;5000966;28;633;-81
2021/07/26 03:37:31;;;;;;;;;;;;;;;22.22;29.43;98190.22;5001592;28;1985;-80
2021/07/26 03:39:56;;;;;;;;;;;;;;;22.20;29.65;98184.22;5004884;28;668;-81
2021/07/26 03:42:22;;;;;;;;;;;;;;;22.12;29.61;98188.47;5004666;28;911;-80
2021/07/26 03:44:47;;;;;;;;;;;;;;;22.12;29.66;98190.50;5004872;28;838;-81
2021/07/26 03:47:12;;;;;;;;;;;;;;;22.00;30.04;98183.50;5004746;28;1069;-78
2021/07/26 03:49:38;;;;;;;;;;;;;;;21.97;29.89;98184.41;5004169;28;1003;-81
2021/07/26 03:52:03;;;;;;;;;;;;;;;21.97;29.78;98187.22;5004833;28;606;-81
2021/07/26 03:54:29;;;;;;;;;;;;;;;22.04;29.72;98178.53;5003976;28;1288;-81
2021/07/26 03:56:58;;;;;;;;;;;;;;;22.06;29.54;98187.38;5004334;28;1975;-81
2021/07/26 03:59:23;;;;;;;;;;;;;;;22.09;29.76;98192.19;5004231;28;904;-81
2021/07/26 04:01:49;;;;;;;;;;;;;;;22.21;29.52;98188.63;5004041;28;868;-80
2021/07/26 04:04:16;;;;;;;;;;;;;;;22.21;29.61;98194.31;5004587;28;668;-81
2021/07/26 04:06:43;;;;;;;;;;;;;;;22.26;29.42;98192.97;5004775;28;584;-80
2021/07/26 04:09:08;;;;;;;;;;;;;;;22.23;29.58;98203.19;5004281;28;682;-81
2021/07/26 04:11:37;;;;;;;;;;;;;;;22.16;29.50;98206.19;5004063;28;995;-81
2021/07/26 04:14:05;;;;;;;;;;;;;;;22.23;29.50;98203.19;5004078;28;918;-81
2021/07/26 04:16:31;;;;;;;;;;;;;;;22.26;29.73;98202.28;5004258;28;1983;-80
2021/07/26 04:18:59;;;;;;;;;;;;;;;22.22;29.71;98212.91;5004402;28;694;-79
2021/07/26 04:21:28;;;;;;;;;;;;;;;22.09;29.88;98214.84;5004132;28;1166;-79
2021/07/26 04:23:53;;;;;;;;;;;;;;;22.07;30.14;98205.97;5003952;28;1378;-79
2021/07/26 04:26:19;;;;;;;;;;;;;;;22.08;30.21;98204.75;5003680;28;921;-79
2021/07/26 04:28:44;;;;;;;;;;;;;;;22.05;30.37;98203.59;5003616;28;944;-79
2021/07/26 04:31:10;;;;;;;;;;;;;;;22.02;30.34;98206.50;5003717;28;833;-80
2021/07/26 04:33:35;;;;;;;;;;;;;;;22.03;29.99;98206.09;5003820;28;887;-79
2021/07/26 04:36:01;;;;;;;;;;;;;;;22.15;29.85;98209.47;5003997;28;1906;-79
2021/07/26 04:38:27;;;;;;;;;;;;;;;22.05;30.26;98208.47;5003791;28;722;-79
2021/07/26 04:40:52;;;;;;;;;;;;;;;22.11;29.95;98203.88;4986570;28;1232;-79
2021/07/26 04:43:18;;;;;;;;;;;;;;;22.06;30.16;98198.72;5003431;28;1024;-79
2021/07/26 04:45:43;;;;;;;;;;;;;;;22.17;30.00;98204.16;5003631;28;779;-80
2021/07/26 04:48:09;;;;;;;;;;;;;;;21.98;30.43;98214.31;5003009;28;1095;-79
2021/07/26 04:50:34;;;;;;;;;;;;;;;22.03;30.38;98213.78;5003310;28;709;-79
2021/07/26 04:52:59;;;;;;;;;;;;;;;22.09;30.24;98209.19;5003460;28;676;-79
2021/07/26 04:55:26;;;;;;;;;;;;;;;22.09;30.29;98217.69;5003350;28;634;-79
2021/07/26 04:57:52;;;;;;;;;;;;;;;22.12;30.13;98218.84;5003072;28;1963;-79
2021/07/26 05:00:17;;;;;;;;;;;;;;;22.14;30.03;98222.06;5003109;28;801;-79
2021/07/26 05:02:43;;;;;;;;;;;;;;;22.05;30.23;98219.81;5002836;28;883;-80
2021/07/26 05:05:08;;;;;;;;;;;;;;;22.14;30.09;98228.50;5003111;28;699;-78
2021/07/26 05:07:34;;;;;;;;;;;;;;;22.24;30.28;98227.44;5003036;28;653;-78
2021/07/26 05:09:59;;;;;;;;;;;;;;;22.15;30.29;98227.28;5003229;28;651;-78
2021/07/26 05:12:28;;;;;;;;;;;;;;;22.15;30.06;98230.09;5002694;28;1012;-79
2021/07/26 05:15:06;;;;;;;;;;;;;;;22.38;30.51;98231.13;5042228;23;1701;-79
2021/07/26 05:17:39;;;;;;;;;;;;;;;22.84;31.61;98221.38;5062081;28;1963;-79
2021/07/26 05:20:11;;;;;;;;;;;;;;;22.47;32.21;98234.94;5045869;28;1128;-79
2021/07/26 05:22:37;;;;;;;;;;;;;;;22.41;32.06;98241.59;5040755;28;1151;-78
2021/07/26 05:25:09;;;;;;;;;;;;;;;22.31;31.68;98241.44;5030856;28;1150;-79
2021/07/26 05:27:41;;;;;;;;;;;;;;;22.35;31.24;98242.13;5039495;28;1238;-79
2021/07/26 05:30:13;;;;;;;;;;;;;;;22.28;31.44;98244.38;5032442;28;1139;-78
2021/07/26 05:32:45;;;;;;;;;;;;;;;22.36;31.13;98255.06;5029768;28;1174;-79
2021/07/26 05:35:17;;;;;;;;;;;;;;;22.33;31.18;98253.13;5022339;28;602;-80
2021/07/26 05:37:49;;;;;;;;;;;;;;;22.29;31.08;98258.09;5022215;28;1906;-79
2021/07/26 05:40:21;;;;;;;;;;;;;;;22.17;30.99;98261.63;5022207;28;689;-79
2021/07/26 05:42:53;;;;;;;;;;;;;;;22.20;30.76;98255.06;5022217;28;550;-79
2021/07/26 05:45:26;;;;;;;;;;;;;;;22.09;30.84;98260.19;5021909;28;904;-79
2021/07/26 05:47:58;;;;;;;;;;;;;;;22.16;30.80;98259.22;5021095;28;842;-80
2021/07/26 05:50:31;;;;;;;;;;;;;;;22.16;30.69;98250.72;5021983;28;710;-79
2021/07/26 05:53:03;;;;;;;;;;;;;;;22.21;30.33;98262.34;5021493;28;1139;-79
2021/07/26 05:55:31;;;;;;;;;;;;;;;22.29;30.20;98258.09;5021322;28;598;-80
2021/07/26 05:58:04;;;;;;;;;;;;;;;22.25;30.03;98256.59;5021278;28;831;-79
2021/07/26 06:00:40;;;;;;;;;;;;;;;22.12;30.23;98259.31;5020761;28;969;-79
2021/07/26 06:03:12;;;;;;;;;;;;;;;22.06;30.02;98255.41;5021451;28;828;-79
2021/07/26 06:05:45;;;;;;;;;;;;;;;22.16;29.75;98254.38;5021207;28;693;-80
2021/07/26 06:08:20;;;;;;;;;;;;;;;22.16;29.77;98251.53;5021768;28;749;-79
2021/07/26 06:10:52;;;;;;;;;;;;;;;22.12;29.71;98247.97;5021724;28;594;-79
2021/07/26 06:13:24;;;;;;;;;;;;;;;22.06;29.95;98261.06;5021507;28;678;-79
2021/07/26 06:16:08;;;;;;;;;;;;;;;22.22;29.55;98263.13;5019944;28;1898;-79
2021/07/26 06:18:40;;;;;;;;;;;;;;;22.09;29.69;98260.19;5021135;28;817;-79
2021/07/26 06:21:12;;;;;;;;;;;;;;;22.12;29.71;98270.66;5021518;28;718;-79
2021/07/26 06:23:44;;;;;;;;;;;;;;;22.11;29.66;98280.41;5021499;28;639;-79
2021/07/26 06:26:09;;;;;;;;;;;;;;;22.08;29.78;98265.06;5021487;28;607;-79
2021/07/26 06:28:42;;;;;;;;;;;;;;;22.03;29.85;98274.09;5021348;28;627;-79
2021/07/26 06:31:14;;;;;;;;;;;;;;;22.02;29.70;98274.50;5020985;28;878;-79
2021/07/26 06:33:46;;;;;;;;;;;;;;;22.13;29.49;98282.81;5020944;28;899;-79
2021/07/26 06:36:18;;;;;;;;;;;;;;;22.18;29.37;98283.06;5021144;28;1981;-79
2021/07/26 06:38:50;;;;;;;;;;;;;;;22.10;29.55;98290.13;5021495;28;738;-79
2021/07/26 06:41:22;;;;;;;;;;;;;;;22.20;29.67;98289.09;5021251;28;665;-79
2021/07/26 06:43:54;;;;;;;;;;;;;;;22.18;29.40;98290.78;5020569;28;669;-79
2021/07/26 06:46:26;;;;;;;;;;;;;;;22.24;29.62;98284.13;5020754;28;874;-80
2021/07/26 06:48:58;;;;;;;;;;;;;;;22.07;29.60;98279.66;5020813;28;803;-79
2021/07/26 06:51:45;;;;;;;;;;;;;;;21.98;29.66;98288.00;5020986;28;975;-79
2021/07/26 06:54:24;;;;;;;;;;;;;;;22.07;29.45;98285.31;5020946;28;857;-78
2021/07/26 06:56:56;;;;;;;;;;;;;;;22.09;29.31;98291.34;5020832;28;1980;-79
2021/07/26 06:59:29;;;;;;;;;;;;;;;22.08;29.57;98286.94;5020864;28;722;-79
2021/07/26 07:01:54;;;;;;;;;;;;;;;22.19;29.20;98293.16;5020559;28;953;-79
2021/07/26 07:04:26;;;;;;;;;;;;;;;22.15;29.28;98292.44;5020480;28;837;-79
2021/07/26 07:06:58;;;;;;;;;;;;;;;22.04;29.46;98297.56;5023276;28;1088;-79
2021/07/26 07:09:30;;;;;;;;;;;;;;;22.04;29.44;98294.72;5029932;28;1047;-79
2021/07/26 07:12:02;;;;;;;;;;;;;;;21.97;29.58;98297.72;5031650;28;1190;-79
2021/07/26 07:14:35;;;;;;;;;;;;;;;22.10;29.28;98301.44;5038686;28;1117;-78
2021/07/26 07:17:14;;;;;;;;;;;;;;;22.09;29.36;98306.31;5039518;28;1906;-79
2021/07/26 07:19:48;;;;;;;;;;;;;;;22.03;29.77;98308.09;5039932;28;878;-78
2021/07/26 07:22:20;;;;;;;;;;;;;;;21.99;29.75;98307.38;5040253;28;709;-78
2021/07/26 07:24:52;;;;;;;;;;;;;;;22.16;29.32;98305.38;5040088;28;685;-80
2021/07/26 07:27:24;;;;;;;;;;;;;;;22.12;29.33;98303.88;5040303;28;669;-79
2021/07/26 07:29:56;;;;;;;;;;;;;;;22.04;29.57;98303.22;5040262;28;774;-79
2021/07/26 07:32:28;;;;;;;;;;;;;;;22.02;29.40;98300.84;5040008;28;873;-79
2021/07/26 07:34:53;;;;;;;;;;;;;;;22.07;29.69;98293.81;5039814;28;885;-79
2021/07/26 07:37:25;;;;;;;;;;;;;;;22.11;29.45;98286.06;5039473;28;2003;-80
2021/07/26 07:39:58;;;;;;;;;;;;;;;22.20;29.31;98296.78;5040121;28;806;-79
2021/07/26 07:42:32;;;;;;;;;;;;;;;22.12;29.39;98292.53;5039934;28;662;-79
2021/07/26 07:45:04;;;;;;;;;;;;;;;22.22;29.42;98308.47;5039596;28;638;-79
2021/07/26 07:47:36;;;;;;;;;;;;;;;22.20;29.23;98300.44;5040061;28;650;-79
2021/07/26 07:50:08;;;;;;;;;;;;;;;22.05;29.51;98310.47;5039371;28;673;-79
2021/07/26 07:52:40;;;;;;;;;;;;;;;22.06;29.49;98306.41;5039180;28;861;-79
2021/07/26 07:55:19;;;;;;;;;;;;;;;22.01;29.65;98315.44;5039013;28;889;-80
2021/07/26 07:57:52;;;;;;;;;;;;;;;21.99;29.90;98320.75;5039245;28;1903;-79
2021/07/26 08:00:26;;;;;;;;;;;;;;;22.09;29.47;98316.88;5039523;28;1122;-79
2021/07/26 08:02:51;;;;;;;;;;;;;;;22.11;29.54;98314.41;5039861;28;603;-79
2021/07/26 08:05:23;;;;;;;;;;;;;;;22.18;29.32;98322.75;5039834;28;705;-79
2021/07/26 08:07:55;;;;;;;;;;;;;;;22.03;29.73;98318.63;5039485;28;886;-79
2021/07/26 08:10:27;;;;;;;;;;;;;;;22.19;29.37;98326.38;5038910;28;1007;-79
2021/07/26 08:12:59;;;;;;;;;;;;;;;22.07;29.79;98310.81;5039760;28;603;-80
2021/07/26 08:15:38;;;;;;;;;;;;;;;21.99;29.90;98318.72;5037967;28;1095;-80
2021/07/26 08:18:17;;;;;;;;;;;;;;;22.07;29.72;98313.66;5039798;28;618;-79
2021/07/26 08:20:49;;;;;;;;;;;;;;;22.01;29.84;98316.22;5039764;28;658;-79
2021/07/26 08:23:21;;;;;;;;;;;;;;;22.01;29.85;98309.75;5039888;28;965;-79
2021/07/26 08:25:53;;;;;;;;;;;;;;;22.15;29.66;98315.13;5043392;28;975;-79
2021/07/26 08:28:25;;;;;;;;;;;;;;;22.15;29.69;98314.34;5043348;28;698;-79
2021/07/26 08:30:57;;;;;;;;;;;;;;;22.15;29.65;98309.47;5043434;28;679;-79
2021/07/26 08:33:29;;;;;;;;;;;;;;;22.01;30.01;98309.75;5043270;28;608;-79
2021/07/26 08:35:57;;;;;;;;;;;;;;;22.05;29.78;98311.28;5043157;28;1914;-79
2021/07/26 08:38:29;;;;;;;;;;;;;;;22.23;29.44;98322.22;5043298;28;614;-79
2021/07/26 08:41:01;;;;;;;;;;;;;;;22.24;29.55;98338.00;5043183;28;784;-79
2021/07/26 08:43:34;;;;;;;;;;;;;;;22.16;29.48;98316.72;5042677;28;644;-79
2021/07/26 08:46:07;;;;;;;;;;;;;;;22.08;29.60;98312.44;5043205;28;654;-79
2021/07/26 08:48:39;;;;;;;;;;;;;;;22.10;29.74;98307.94;5042290;28;996;-79
2021/07/26 08:51:11;;;;;;;;;;;;;;;22.16;29.82;98313.88;5042701;28;873;-79
2021/07/26 08:53:43;;;;;;;;;;;;;;;22.20;29.69;98306.09;5043007;28;646;-79
2021/07/26 08:56:15;;;;;;;;;;;;;;;22.08;29.88;98309.59;5042884;28;1967;-79
2021/07/26 08:58:47;;;;;;;;;;;;;;;22.16;29.52;98313.09;5042442;28;685;-78
2021/07/26 09:01:26;;;;;;;;;;;;;;;22.07;29.71;98302.31;5042848;28;680;-79
2021/07/26 09:03:58;;;;;;;;;;;;;;;22.16;29.54;98302.53;5041845;28;979;-78
2021/07/26 09:06:30;;;;;;;;;;;;;;;22.20;29.72;98293.97;5041873;28;948;-79
2021/07/26 09:08:55;;;;;;;;;;;;;;;22.15;29.79;98303.78;5038332;28;1162;-79
2021/07/26 09:11:35;;;;;;;;;;;;;;;22.22;29.64;98297.94;5038941;28;1139;-79
2021/07/26 09:14:07;;;;;;;;;;;;;;;22.11;29.84;98303.06;5034348;28;1231;-79
2021/07/26 09:16:54;;;;;;;;;;;;;;;22.20;29.56;98291.91;5041200;28;1898;-79
2021/07/26 09:19:26;;;;;;;;;;;;;;;22.20;29.63;98299.63;5040943;28;1436;-79
2021/07/26 09:21:59;;;;;;;;;;;;;;;22.26;29.71;98298.66;5040636;28;1345;-79
2021/07/26 09:24:31;;;;;;;;;;;;;;;22.09;29.97;98299.88;5042359;28;622;-79
2021/07/26 09:27:13;;;;;;;;;;;;;;;22.01;29.92;98290.72;5042442;28;676;-79
2021/07/26 09:29:45;;;;;;;;;;;;;;;22.15;29.67;98294.50;5042535;28;799;-79
2021/07/26 09:32:17;;;;;;;;;;;;;;;22.11;29.96;98291.72;5042399;28;697;-79
2021/07/26 09:34:50;;;;;;;;;;;;;;;22.15;29.91;98291.66;5040376;28;900;-79
2021/07/26 09:37:17;;;;;;;;;;;;;;;22.15;29.86;98291.66;5041564;28;1898;-80
2021/07/26 09:39:49;;;;;;;;;;;;;;;22.09;29.70;98294.19;5041602;28;615;-79
2021/07/26 09:42:25;;;;;;;;;;;;;;;22.17;29.80;98289.97;5042257;28;740;-79
2021/07/26 09:45:17;;;;;;;;;;;;;;;22.18;29.80;98297.25;5041465;28;642;-78
2021/07/26 09:48:09;;;;;;;;;;;;;;;22.05;29.95;98293.47;5041284;28;606;-79
2021/07/26 09:50:45;;;;;;;;;;;;;;;22.07;29.89;98291.81;5041095;28;896;-79
2021/07/26 09:53:23;;;;;;;;;;;;;;;22.26;29.84;98292.97;5041517;28;961;-79
2021/07/26 09:55:58;;;;;;;;;;;;;;;22.23;29.78;98293.88;5041755;28;1905;-79
2021/07/26 09:58:37;;;;;;;;;;;;;;;22.19;29.78;98287.50;5041746;28;561;-79
2021/07/26 10:01:09;;;;;;;;;;;;;;;22.11;29.96;98291.72;5041128;28;673;-79
2021/07/26 10:03:43;;;;;;;;;;;;;;;22.06;30.15;98283.72;5040745;28;1293;-79
2021/07/26 10:06:15;;;;;;;;;;;;;;;22.18;29.79;98294.41;5041510;28;702;-79
2021/07/26 10:08:47;;;;;;;;;;;;;;;22.15;29.87;98286.78;5040952;28;935;-79
2021/07/26 10:11:19;;;;;;;;;;;;;;;22.14;30.02;98296.53;5041188;28;970;-80
2021/07/26 10:13:45;;;;;;;;;;;;;;;22.15;29.87;98283.94;5041387;28;579;-79
2021/07/26 10:16:24;;;;;;;;;;;;;;;22.10;29.88;98278.78;5040111;28;1967;-79
2021/07/26 10:18:56;;;;;;;;;;;;;;;22.14;29.91;98285.19;5040715;28;607;-79
2021/07/26 10:21:28;;;;;;;;;;;;;;;22.16;29.92;98282.69;5040711;28;626;-79
2021/07/26 10:24:01;;;;;;;;;;;;;;;22.23;30.04;98285.38;5040830;28;897;-80
2021/07/26 10:26:36;;;;;;;;;;;;;;;22.20;29.88;98283.41;5040306;28;908;-79
2021/07/26 10:29:09;;;;;;;;;;;;;;;22.19;29.92;98276.16;5040590;28;717;-79
2021/07/26 10:31:41;;;;;;;;;;;;;;;22.18;30.24;98280.25;5040574;28;705;-79
2021/07/26 10:34:15;;;;;;;;;;;;;;;22.21;30.15;98275.72;5040458;28;595;-79
2021/07/26 10:36:46;;;;;;;;;;;;;;;22.37;29.69;98275.69;5041204;28;1980;-79
2021/07/26 10:39:23;;;;;;;;;;;;;;;22.26;30.05;98275.97;5040668;28;886;-79
2021/07/26 10:41:55;;;;;;;;;;;;;;;22.18;30.05;98274.56;5039935;28;858;-79
2021/07/26 10:44:27;;;;;;;;;;;;;;;22.07;30.54;98273.97;5040849;28;678;-79
2021/07/26 10:47:03;;;;;;;;;;;;;;;22.24;30.17;98275.63;5040538;28;650;-79
2021/07/26 10:49:35;;;;;;;;;;;;;;;22.12;30.44;98276.31;5040810;28;638;-79
2021/07/26 10:52:01;;;;;;;;;;;;;;;22.12;30.43;98273.47;5040845;28;641;-79
2021/07/26 10:54:34;;;;;;;;;;;;;;;22.14;30.09;98268.19;5040718;28;1089;-79
2021/07/26 10:57:07;;;;;;;;;;;;;;;22.18;30.03;98268.91;5039711;28;1905;-79
2021/07/26 10:59:57;;;;;;;;;;;;;;;22.18;30.17;98274.56;5040681;28;647;-79
2021/07/26 11:02:34;;;;;;;;;;;;;;;22.25;30.30;98265.09;5040631;28;733;-80
2021/07/26 11:05:24;;;;;;;;;;;;;;;22.05;30.52;98265.94;5040561;28;709;-80
2021/07/26 11:08:14;;;;;;;;;;;;;;;22.04;30.31;98272.84;5040458;28;650;-79
2021/07/26 11:10:53;;;;;;;;;;;;;;;22.03;30.49;98273.28;5040610;28;690;-79
2021/07/26 11:13:46;;;;;;;;;;;;;;;22.11;30.20;98274.72;5040051;28;955;-79
2021/07/26 11:16:45;;;;;;;;;;;;;;;22.24;29.98;98278.47;5033772;28;1973;-79
2021/07/26 11:19:35;;;;;;;;;;;;;;;22.21;29.91;98268.00;5034980;28;955;-79
2021/07/26 11:22:17;;;;;;;;;;;;;;;22.20;29.99;98268.47;5039831;28;1256;-79
2021/07/26 11:24:53;;;;;;;;;;;;;;;22.14;30.28;98273.06;5040337;28;690;-79
2021/07/26 11:27:25;;;;;;;;;;;;;;;22.29;29.95;98269.44;5040357;28;630;-80
2021/07/26 11:29:57;;;;;;;;;;;;;;;22.17;30.49;98260.81;5039820;28;1013;-79
2021/07/26 11:32:29;;;;;;;;;;;;;;;22.15;30.34;98264.09;5039921;28;931;-79
2021/07/26 11:35:01;;;;;;;;;;;;;;;22.08;30.41;98259.41;5039547;28;705;-79
2021/07/26 11:37:30;;;;;;;;;;;;;;;22.28;30.08;98262.19;5039004;28;1898;-79
2021/07/26 11:40:06;;;;;;;;;;;;;;;22.34;30.18;98268.91;5040156;28;650;-80
2021/07/26 11:42:42;;;;;;;;;;;;;;;22.30;30.44;98264.56;5040108;28;706;-79
2021/07/26 11:45:16;;;;;;;;;;;;;;;22.27;30.55;98262.59;5039875;28;1082;-79
2021/07/26 11:47:50;;;;;;;;;;;;;;;22.19;30.68;98264.81;5039710;28;846;-79
2021/07/26 11:50:33;;;;;;;;;;;;;;;22.24;30.41;98263.50;5039998;28;650;-79
2021/07/26 11:53:05;;;;;;;;;;;;;;;22.20;30.56;98262.78;5039533;28;491;-80
2021/07/26 11:55:37;;;;;;;;;;;;;;;22.16;30.61;98271.38;5039329;28;684;-79
2021/07/26 11:58:10;;;;;;;;;;;;;;;22.13;30.49;98272.28;5040120;28;1961;-79
2021/07/26 12:00:42;;;;;;;;;;;;;;;22.09;30.58;98272.31;5043647;28;961;-79
2021/07/26 12:03:14;;;;;;;;;;;;;;;22.11;30.53;98269.06;5043931;28;967;-79
2021/07/26 12:05:46;;;;;;;;;;;;;;;22.11;30.67;98269.06;5043818;28;678;-78
2021/07/26 12:08:19;;;;;;;;;;;;;;;22.24;30.45;98272.78;5043924;28;686;-79
2021/07/26 12:10:44;;;;;;;;;;;;;;;22.25;30.28;98274.38;5044049;28;699;-79
2021/07/26 12:13:17;;;;;;;;;;;;;;;22.19;30.46;98270.50;5043393;28;600;-79
2021/07/26 12:15:50;;;;;;;;;;;;;;;22.22;30.49;98275.25;5042139;28;1971;-79
2021/07/26 12:18:29;;;;;;;;;;;;;;;22.24;30.38;98272.78;5042685;28;916;-79
2021/07/26 12:21:01;;;;;;;;;;;;;;;22.20;30.65;98266.41;5043030;28;634;-79
2021/07/26 12:23:35;;;;;;;;;;;;;;;22.32;30.28;98256.41;5043520;28;610;-79
2021/07/26 12:26:10;;;;;;;;;;;;;;;22.18;30.53;98257.56;5043527;28;619;-79
2021/07/26 12:28:42;;;;;;;;;;;;;;;22.22;30.44;98263.13;5042711;28;725;-79
2021/07/26 12:31:33;;;;;;;;;;;;;;;22.29;30.47;98258.09;5043376;28;955;-80
2021/07/26 12:34:09;;;;;;;;;;;;;;;22.16;30.86;98254.38;5043030;28;1013;-79
2021/07/26 12:36:34;;;;;;;;;;;;;;;22.15;30.52;98257.66;5043655;28;1910;-79
2021/07/26 12:39:08;;;;;;;;;;;;;;;22.21;30.69;98256.66;5043330;28;671;-79
2021/07/26 12:41:41;;;;;;;;;;;;;;;22.11;30.81;98257.72;5042717;28;662;-79
2021/07/26 12:44:20;;;;;;;;;;;;;;;22.21;30.64;98256.66;5043352;28;707;-79
2021/07/26 12:46:53;;;;;;;;;;;;;;;22.22;30.50;98258.25;5042189;28;917;-79
2021/07/26 12:49:25;;;;;;;;;;;;;;;22.12;30.82;98253.66;5042815;28;916;-79
2021/07/26 12:51:57;;;;;;;;;;;;;;;22.23;30.28;98254.19;5043359;28;714;-79
2021/07/26 12:54:42;;;;;;;;;;;;;;;22.14;30.66;98247.56;5043091;28;630;-79
2021/07/26 12:57:14;;;;;;;;;;;;;;;22.14;30.53;98247.56;5042872;28;2192;-79
2021/07/26 12:59:46;;;;;;;;;;;;;;;22.11;30.85;98240.72;5042809;28;710;-79
2021/07/26 13:02:18;;;;;;;;;;;;;;;22.14;30.87;98239.84;5042056;28;1284;-79
2021/07/26 13:04:43;;;;;;;;;;;;;;;22.15;30.52;98237.81;5042159;28;1230;-79
2021/07/26 13:07:17;;;;;;;;;;;;;;;22.20;30.46;98248.63;5042795;28;626;-79
2021/07/26 13:09:48;;;;;;;;;;;;;;;22.22;30.56;98238.41;5042443;28;672;-79
2021/07/26 13:12:20;;;;;;;;;;;;;;;22.25;30.64;98239.56;5075258;28;733;-79
2021/07/26 13:14:52;;;;;;;;;;;;;;;22.26;30.38;98241.16;5041478;28;1116;-79
2021/07/26 13:17:31;;;;;;;;;;;;;;;22.28;30.37;98239.50;5042603;28;1964;-79
2021/07/26 13:20:08;;;;;;;;;;;;;;;22.33;30.28;98236.13;5042659;28;889;-80
2021/07/26 13:22:40;;;;;;;;;;;;;;;22.34;30.54;98243.38;5042138;28;879;-79
2021/07/26 13:25:12;;;;;;;;;;;;;;;22.35;30.43;98239.31;5042438;28;578;-79
2021/07/26 13:27:44;;;;;;;;;;;;;;;22.29;30.23;98243.91;5042356;28;666;-79